createdAt,value
2018-08-03T00:01:30.162Z,14.30
2018-08-03T00:03:57.607Z,14.13
2018-08-03T00:06:25.026Z,13.63
2018-08-03T00:08:52.490Z,13.87
2018-08-03T00:11:19.959Z,13.17
2018-08-03T00:13:47.357Z,12.33
2018-08-03T00:16:14.787Z,13.03
2018-08-03T00:18:42.169Z,13.23
2018-08-03T00:21:09.537Z,12.70
2018-08-03T00:23:36.981Z,12.27
2018-08-03T00:26:04.478Z,12.90
2018-08-03T00:28:32.001Z,14.03
2018-08-03T00:30:59.381Z,13.43
2018-08-03T00:33:26.765Z,12.40
2018-08-03T00:35:54.332Z,12.27
2018-08-03T00:38:21.850Z,12.63
2018-08-03T00:40:49.336Z,13.50
2018-08-03T00:43:16.751Z,12.83
2018-08-03T00:45:44.139Z,12.73
2018-08-03T00:48:11.737Z,11.70
2018-08-03T00:50:39.108Z,12.77
2018-08-03T00:53:06.490Z,12.27
2018-08-03T00:55:33.920Z,15.20
2018-08-03T00:58:01.350Z,12.93
2018-08-03T01:00:28.735Z,12.83
2018-08-03T01:02:56.104Z,13.57
2018-08-03T01:05:24.125Z,14.17
2018-08-03T01:07:51.537Z,13.80
2018-08-03T01:10:19.014Z,13.67
2018-08-03T01:12:47.610Z,14.57
2018-08-03T01:15:14.964Z,12.93
2018-08-03T01:17:42.427Z,12.50
2018-08-03T01:20:09.857Z,13.80
2018-08-03T01:22:37.236Z,13.63
2018-08-03T01:25:05.130Z,14.47
2018-08-03T01:27:32.616Z,13.60
2018-08-03T01:29:59.957Z,14.97
2018-08-03T01:32:27.330Z,14.10
2018-08-03T01:34:54.701Z,14.23
2018-08-03T01:37:22.327Z,13.43
2018-08-03T01:39:49.688Z,14.40
2018-08-03T01:42:17.120Z,15.37
2018-08-03T01:44:44.580Z,14.30
2018-08-03T01:47:11.964Z,14.53
2018-08-03T01:49:39.363Z,15.27
2018-08-03T01:52:06.813Z,14.33
2018-08-03T01:54:34.219Z,15.43
2018-08-03T01:57:01.656Z,14.27
2018-08-03T01:59:30.012Z,14.93
2018-08-03T02:01:57.442Z,13.20
2018-08-03T02:04:24.847Z,14.33
2018-08-03T02:06:52.186Z,13.83
2018-08-03T02:09:19.531Z,13.63
2018-08-03T02:11:46.934Z,13.17
2018-08-03T02:14:14.370Z,13.53
2018-08-03T02:16:41.802Z,13.03
2018-08-03T02:19:09.285Z,13.07
2018-08-03T02:21:36.712Z,13.50
2018-08-03T02:24:04.063Z,13.40
2018-08-03T02:26:31.633Z,13.43
2018-08-03T02:28:59.043Z,13.13
2018-08-03T02:31:26.474Z,13.00
2018-08-03T02:33:53.999Z,14.13
2018-08-03T02:36:21.380Z,13.57
2018-08-03T02:38:49.133Z,11.93
2018-08-03T02:41:16.717Z,13.67
2018-08-03T02:43:44.098Z,13.23
2018-08-03T02:46:11.558Z,13.40
2018-08-03T02:48:39.241Z,12.33
2018-08-03T02:51:06.829Z,14.07
2018-08-03T02:53:35.084Z,13.60
2018-08-03T02:56:02.561Z,13.93
2018-08-03T02:58:29.982Z,14.67
2018-08-03T03:00:57.401Z,15.47
2018-08-03T03:03:24.809Z,14.50
2018-08-03T03:05:52.231Z,15.37
2018-08-03T03:08:19.678Z,15.10
2018-08-03T03:10:47.082Z,13.70
2018-08-03T03:13:14.479Z,14.73
2018-08-03T03:15:42.441Z,13.70
2018-08-03T03:18:09.780Z,14.90
2018-08-03T03:20:37.252Z,15.00
2018-08-03T03:23:04.723Z,15.07
2018-08-03T03:25:32.128Z,16.27
2018-08-03T03:28:00.284Z,15.60
2018-08-03T03:30:27.662Z,16.40
2018-08-03T03:32:55.116Z,16.50
2018-08-03T03:35:22.495Z,18.13
2018-08-03T03:37:50.141Z,18.60
2018-08-03T03:40:17.512Z,16.80
2018-08-03T03:42:45.045Z,18.20
2018-08-03T03:45:12.408Z,16.20
2018-08-03T03:47:39.792Z,16.77
2018-08-03T03:50:07.219Z,17.40
2018-08-03T03:52:34.739Z,18.17
2018-08-03T03:55:02.132Z,18.53
2018-08-03T03:57:29.680Z,18.73
2018-08-03T03:59:57.051Z,18.57
2018-08-03T04:02:24.476Z,19.40
2018-08-03T04:04:51.872Z,18.40
2018-08-03T04:07:19.286Z,18.60
2018-08-03T04:09:46.783Z,18.77
2018-08-03T04:12:14.297Z,19.37
2018-08-03T04:14:41.690Z,18.93
2018-08-03T04:17:09.183Z,20.20
2018-08-03T04:19:36.608Z,18.87
2018-08-03T04:22:04.099Z,19.80
2018-08-03T04:24:31.525Z,20.87
2018-08-03T04:26:59.006Z,18.63
2018-08-03T04:29:26.445Z,18.03
2018-08-03T04:31:54.003Z,17.83
2018-08-03T04:34:21.505Z,19.30
2018-08-03T04:36:48.954Z,20.63
2018-08-03T04:39:16.353Z,19.50
2018-08-03T04:41:43.746Z,17.63
2018-08-03T04:44:11.203Z,18.20
2018-08-03T04:46:38.619Z,18.47
2018-08-03T04:49:06.124Z,18.93
2018-08-03T04:51:33.559Z,17.73
2018-08-03T04:54:00.993Z,18.00
2018-08-03T04:56:28.465Z,17.83
2018-08-03T04:58:55.900Z,18.30
2018-08-03T05:01:23.387Z,18.93
2018-08-03T05:03:50.829Z,17.93
2018-08-03T05:06:18.314Z,18.93
2018-08-03T05:08:45.750Z,17.10
2018-08-03T05:11:14.555Z,18.47
2018-08-03T05:13:42.112Z,17.53
2018-08-03T05:16:09.562Z,17.57
2018-08-03T05:18:37.076Z,17.30
2018-08-03T05:21:04.571Z,18.00
2018-08-03T05:23:32.032Z,15.87
2018-08-03T05:25:59.480Z,17.03
2018-08-03T05:28:26.944Z,15.87
2018-08-03T05:30:54.426Z,16.97
2018-08-03T05:33:21.852Z,16.67
2018-08-03T05:35:52.701Z,16.63
2018-08-03T05:38:19.994Z,16.57
2018-08-03T05:40:47.429Z,15.60
2018-08-03T05:43:14.930Z,16.23
2018-08-03T05:45:42.368Z,16.57
2018-08-03T05:48:09.765Z,16.03
2018-08-03T05:50:37.228Z,16.50
2018-08-03T05:53:04.913Z,15.27
2018-08-03T05:55:32.377Z,15.90
2018-08-03T05:57:59.898Z,15.57
2018-08-03T06:00:27.268Z,15.03
2018-08-03T06:02:54.821Z,14.63
2018-08-03T06:05:22.519Z,16.20
2018-08-03T06:07:49.925Z,14.97
2018-08-03T06:10:17.517Z,14.90
2018-08-03T06:12:45.081Z,14.97
2018-08-03T06:15:12.611Z,13.60
2018-08-03T06:17:40.647Z,14.97
2018-08-03T06:20:08.632Z,14.60
2018-08-03T06:22:36.188Z,14.30
2018-08-03T06:25:03.565Z,15.60
2018-08-03T06:27:30.958Z,14.90
2018-08-03T06:29:59.416Z,13.63
2018-08-03T06:32:27.422Z,15.23
2018-08-03T06:34:54.974Z,15.23
2018-08-03T06:37:22.718Z,15.87
2018-08-03T06:39:50.187Z,13.83
2018-08-03T06:42:17.658Z,14.77
2018-08-03T06:44:45.182Z,15.33
2018-08-03T06:47:12.572Z,15.03
2018-08-03T06:49:40.258Z,14.80
2018-08-03T06:52:07.866Z,15.07
2018-08-03T06:54:35.455Z,14.70
2018-08-03T06:57:03.076Z,14.30
2018-08-03T06:59:30.633Z,13.07
2018-08-03T07:01:58.235Z,13.90
2018-08-03T07:04:25.781Z,13.67
2018-08-03T07:06:53.123Z,14.20
2018-08-03T07:09:20.588Z,13.00
2018-08-03T07:11:48.140Z,13.47
2018-08-03T07:14:15.629Z,13.90
2018-08-03T07:16:43.132Z,13.77
2018-08-03T07:19:10.613Z,13.80
2018-08-03T07:21:38.059Z,13.60
2018-08-03T07:24:05.845Z,13.77
2018-08-03T07:29:17.520Z,13.93
2018-08-03T07:31:45.066Z,13.20
2018-08-03T07:34:12.499Z,14.13
2018-08-03T07:36:40.002Z,13.10
2018-08-03T07:39:07.911Z,13.27
2018-08-03T07:41:35.447Z,12.60
2018-08-03T07:44:02.826Z,13.10
2018-08-03T07:46:30.242Z,12.57
2018-08-03T07:48:57.612Z,14.00
2018-08-03T07:51:25.172Z,13.20
2018-08-03T07:53:52.681Z,12.97
2018-08-03T07:56:20.123Z,12.70
2018-08-03T07:58:47.520Z,13.00
2018-08-03T08:01:15.111Z,13.20
2018-08-03T08:03:42.563Z,13.17
2018-08-03T08:06:10.369Z,13.17
2018-08-03T08:08:38.800Z,12.70
2018-08-03T08:11:06.331Z,13.20
2018-08-03T08:13:33.767Z,11.80
2018-08-03T08:16:01.236Z,13.10
2018-08-03T08:18:28.812Z,12.80
2018-08-03T08:20:56.275Z,12.10
2018-08-03T08:23:23.753Z,12.10
2018-08-03T08:25:51.316Z,12.47
2018-08-03T08:28:18.765Z,12.20
2018-08-03T08:30:46.744Z,11.63
2018-08-03T08:33:14.324Z,13.20
2018-08-03T08:35:41.788Z,12.70
2018-08-03T08:38:09.222Z,10.40
2018-08-03T08:40:36.718Z,11.50
2018-08-03T08:43:04.195Z,11.10
2018-08-03T08:45:31.662Z,10.97
2018-08-03T08:47:59.166Z,10.93
2018-08-03T08:50:26.682Z,11.00
2018-08-03T08:52:54.236Z,10.77
2018-08-03T08:55:21.845Z,11.40
2018-08-03T08:57:49.668Z,10.50
2018-08-03T09:00:17.481Z,9.90
2018-08-03T09:02:44.945Z,10.87
2018-08-03T09:05:12.648Z,11.00
2018-08-03T09:07:40.107Z,10.37
2018-08-03T09:10:07.855Z,9.60
2018-08-03T09:12:35.338Z,12.03
2018-08-03T09:15:03.079Z,10.60
2018-08-03T09:17:30.428Z,10.20
2018-08-03T09:19:58.054Z,11.00
2018-08-03T09:22:25.558Z,9.47
2018-08-03T09:24:53.321Z,9.53
2018-08-03T09:27:20.863Z,11.93
2018-08-03T09:29:48.236Z,9.00
2018-08-03T09:32:15.920Z,10.13
2018-08-03T09:34:43.325Z,9.97
2018-08-03T09:37:10.730Z,10.07
2018-08-03T09:39:38.155Z,11.67
2018-08-03T09:42:05.565Z,10.87
2018-08-03T09:44:33.077Z,10.00
2018-08-03T09:47:00.431Z,10.20
2018-08-03T09:49:28.427Z,10.50
2018-08-03T09:51:55.795Z,10.67
2018-08-03T09:54:23.653Z,11.03
2018-08-03T09:56:51.514Z,10.50
2018-08-03T09:59:18.923Z,10.37
2018-08-03T10:01:48.740Z,10.37
2018-08-03T10:04:16.504Z,10.80
2018-08-03T10:06:43.939Z,11.07
2018-08-03T10:09:11.283Z,11.13
2018-08-03T10:11:39.077Z,11.00
2018-08-03T10:16:17.221Z,10.23
2018-08-03T10:18:44.697Z,9.40
2018-08-03T10:21:12.267Z,10.50
2018-08-03T10:23:39.670Z,10.10
2018-08-03T10:26:07.132Z,9.70
2018-08-03T10:28:35.151Z,8.70
2018-08-03T10:31:02.712Z,9.00
2018-08-03T10:33:30.096Z,9.33
2018-08-03T10:35:57.556Z,9.60
2018-08-03T10:38:24.970Z,10.03
2018-08-03T10:40:52.406Z,10.23
2018-08-03T10:43:20.282Z,8.97
2018-08-03T10:45:47.719Z,8.77
2018-08-03T10:48:16.105Z,9.30
2018-08-03T10:51:05.721Z,8.97
2018-08-03T10:53:33.928Z,9.47
2018-08-03T10:56:01.418Z,8.30
2018-08-03T10:58:29.917Z,8.43
2018-08-03T11:01:00.749Z,8.87
2018-08-03T11:03:28.987Z,9.00
2018-08-03T11:05:56.704Z,8.23
2018-08-03T11:08:31.458Z,8.63
2018-08-03T11:11:04.385Z,7.70
2018-08-03T11:13:32.023Z,8.17
2018-08-03T11:16:07.901Z,8.33
2018-08-03T11:18:44.199Z,8.13
2018-08-03T11:21:15.428Z,8.70
2018-08-03T11:23:42.823Z,7.30
2018-08-03T11:26:16.781Z,7.50
2018-08-03T11:28:54.390Z,7.07
2018-08-03T11:31:22.964Z,7.23
2018-08-03T11:33:50.807Z,6.77
2018-08-03T11:36:18.196Z,7.80
2018-08-03T11:38:45.703Z,6.83
2018-08-03T11:41:13.255Z,6.70
2018-08-03T11:43:40.753Z,7.67
2018-08-03T11:46:08.832Z,8.60
2018-08-03T11:48:36.367Z,7.67
2018-08-03T11:51:11.060Z,8.37
2018-08-03T12:02:10.098Z,7.10
2018-08-03T12:04:37.555Z,7.20
2018-08-03T12:07:06.674Z,7.00
2018-08-03T12:09:34.233Z,7.53
2018-08-03T12:14:37.807Z,7.90
2018-08-03T12:17:05.857Z,8.47
2018-08-03T12:19:35.647Z,8.40
2018-08-03T12:22:04.456Z,8.03
2018-08-03T12:24:31.939Z,8.03
2018-08-03T12:32:28.199Z,8.13
2018-08-03T12:34:55.632Z,7.97
2018-08-03T14:10:53.380Z,7.13
2018-08-03T14:13:21.988Z,7.43
2018-08-03T14:15:49.515Z,6.77
2018-08-03T14:18:20.111Z,7.47
2018-08-03T14:20:47.942Z,7.33
2018-08-03T14:23:16.537Z,7.00
2018-08-03T14:25:44.066Z,6.57
2018-08-03T14:28:12.769Z,7.47
2018-08-03T14:30:41.040Z,7.43
2018-08-03T14:33:08.763Z,8.60
2018-08-03T14:35:36.399Z,7.77
2018-08-03T14:38:04.503Z,8.30
2018-08-03T14:40:33.789Z,6.50
2018-08-03T14:43:01.336Z,6.93
2018-08-03T14:45:29.464Z,6.63
2018-08-03T14:47:56.939Z,6.93
2018-08-03T14:50:30.585Z,6.40
2018-08-03T14:52:58.016Z,6.87
2018-08-03T14:55:25.496Z,7.07
2018-08-03T14:57:53.175Z,8.70
2018-08-03T15:00:21.254Z,7.00
2018-08-03T15:02:48.897Z,7.10
2018-08-03T15:05:16.339Z,7.03
2018-08-03T15:07:43.825Z,7.37
2018-08-03T15:10:11.224Z,7.47
2018-08-03T15:12:42.687Z,7.40
2018-08-03T15:15:10.209Z,7.23
2018-08-03T15:17:38.163Z,7.17
2018-08-03T15:20:06.726Z,7.50
2018-08-03T15:22:34.125Z,7.50
2018-08-03T15:25:01.635Z,8.07
2018-08-03T15:27:29.018Z,7.40
2018-08-03T15:29:56.553Z,7.37
2018-08-03T15:32:24.193Z,7.23
2018-08-03T15:34:52.684Z,7.40
2018-08-03T15:37:20.230Z,7.67
2018-08-03T15:39:48.235Z,7.70
2018-08-03T15:42:15.900Z,7.27
2018-08-03T15:44:43.455Z,6.83
2018-08-03T15:47:10.919Z,7.57
2018-08-03T15:49:38.427Z,7.00
2018-08-03T15:52:06.389Z,7.30
2018-08-03T15:54:33.973Z,7.70
2018-08-03T15:57:01.374Z,6.57
2018-08-03T15:59:28.771Z,6.33
2018-08-03T16:01:57.261Z,7.27
2018-08-03T16:04:26.003Z,6.80
2018-08-03T16:06:54.409Z,7.90
2018-08-03T16:09:22.566Z,7.47
2018-08-03T16:11:50.016Z,7.20
2018-08-03T16:14:18.204Z,9.13
2018-08-03T16:16:45.572Z,9.53
2018-08-03T18:24:48.464Z,7.13
2018-08-03T18:30:07.959Z,7.20
2018-08-03T18:38:03.917Z,7.00
2018-08-03T18:40:31.579Z,8.30
2018-08-03T18:42:59.197Z,7.50
2018-08-03T18:45:26.646Z,7.53
2018-08-03T18:47:54.286Z,8.23
2018-08-03T18:50:21.904Z,7.80
2018-08-03T18:52:55.087Z,8.10
2018-08-03T18:55:22.838Z,8.07
2018-08-03T18:57:54.049Z,7.83
2018-08-03T19:00:21.867Z,10.30
2018-08-03T19:02:50.600Z,8.33
2018-08-03T19:05:31.984Z,7.73
2018-08-03T19:08:00.579Z,8.10
2018-08-03T19:10:28.577Z,8.60
2018-08-03T19:13:00.323Z,8.30
2018-08-03T19:15:27.815Z,8.40
2018-08-03T19:20:50.780Z,8.63
2018-08-03T19:23:25.318Z,8.20
2018-08-03T19:26:16.628Z,7.80
2018-08-03T19:28:51.495Z,8.77
2018-08-03T19:31:24.738Z,8.93
2018-08-03T19:33:52.268Z,8.07
2018-08-03T19:36:20.826Z,9.00
2018-08-03T19:38:48.953Z,8.67
2018-08-03T19:41:18.975Z,8.93
2018-08-03T19:43:47.474Z,7.93
2018-08-03T19:46:16.156Z,8.43
2018-08-03T19:48:44.470Z,9.10
2018-08-03T19:51:12.515Z,10.17
2018-08-03T19:53:41.116Z,9.70
2018-08-03T19:56:09.091Z,9.73
2018-08-03T19:58:37.019Z,10.23
2018-08-03T20:01:05.919Z,10.90
2018-08-03T20:03:34.468Z,11.00
2018-08-03T20:06:01.979Z,10.13
2018-08-03T20:08:29.707Z,9.20
2018-08-03T20:11:00.001Z,10.17
2018-08-03T20:13:27.954Z,10.63
2018-08-03T20:15:56.021Z,10.10
2018-08-03T20:18:24.179Z,11.63
2018-08-03T20:20:52.122Z,10.10
2018-08-03T20:23:19.986Z,9.57
2018-08-03T20:25:47.724Z,10.77
2018-08-03T20:28:15.364Z,10.80
2018-08-03T20:30:43.257Z,11.10
2018-08-03T20:33:10.741Z,10.97
2018-08-03T20:35:38.395Z,10.97
2018-08-03T20:38:06.141Z,10.07
2018-08-03T20:40:34.449Z,10.50
2018-08-03T20:43:01.990Z,11.33
2018-08-03T20:45:31.056Z,12.03
2018-08-03T20:47:58.811Z,11.77
2018-08-03T20:50:26.197Z,11.30
2018-08-03T20:52:54.149Z,12.20
2018-08-03T20:55:22.758Z,12.83
2018-08-03T20:57:51.130Z,12.30
2018-08-03T21:00:18.598Z,11.50
2018-08-03T21:02:46.062Z,13.07
2018-08-03T21:05:13.725Z,13.87
2018-08-03T21:07:41.617Z,11.73
2018-08-03T21:10:09.148Z,13.20
2018-08-03T21:12:36.831Z,12.67
2018-08-03T21:15:05.066Z,11.83
2018-08-03T21:17:32.439Z,12.30
2018-08-03T21:19:59.849Z,10.70
2018-08-03T21:22:27.241Z,12.07
2018-08-03T21:24:54.742Z,11.53
2018-08-03T21:27:22.202Z,14.73
2018-08-03T21:29:49.707Z,11.70
2018-08-03T21:32:17.216Z,11.30
2018-08-03T21:34:45.643Z,11.07
2018-08-03T21:37:13.007Z,11.80
2018-08-03T21:39:40.567Z,11.50
2018-08-03T21:42:08.281Z,11.67
2018-08-03T21:44:35.836Z,11.83
2018-08-03T21:47:03.333Z,11.63
2018-08-03T21:49:30.704Z,11.97
2018-08-03T21:51:58.158Z,11.47
2018-08-03T21:54:25.518Z,10.30
2018-08-03T21:56:52.970Z,10.63
2018-08-03T21:59:20.388Z,10.77
2018-08-03T22:01:47.875Z,11.97
2018-08-03T22:04:15.262Z,11.67
2018-08-03T22:06:43.411Z,12.47
2018-08-03T22:09:11.026Z,11.50
2018-08-03T22:11:38.832Z,12.83
2018-08-03T22:14:06.533Z,12.00
2018-08-03T22:16:33.972Z,11.53
2018-08-03T22:19:01.556Z,12.20
2018-08-03T22:21:28.844Z,12.77
2018-08-03T22:23:56.362Z,13.07
2018-08-03T22:26:23.787Z,13.37
2018-08-03T22:28:51.243Z,11.83
2018-08-03T22:31:18.746Z,13.13
2018-08-03T22:33:46.096Z,12.07
2018-08-03T22:36:13.611Z,12.07
2018-08-03T22:38:41.234Z,11.97
2018-08-03T22:41:08.555Z,12.07
2018-08-03T22:43:36.324Z,10.93
2018-08-03T22:46:03.735Z,12.37
2018-08-03T22:48:31.314Z,14.43
2018-08-03T22:50:58.655Z,13.50
2018-08-03T22:53:26.048Z,12.93
2018-08-03T22:55:53.526Z,13.00
2018-08-03T22:58:20.929Z,12.47
2018-08-03T23:00:48.407Z,12.40
2018-08-03T23:03:15.842Z,11.80
2018-08-03T23:05:43.244Z,11.87
2018-08-03T23:08:10.669Z,12.17
2018-08-03T23:10:38.080Z,11.47
2018-08-03T23:13:06.116Z,11.50
2018-08-03T23:15:33.630Z,11.93
2018-08-03T23:18:01.011Z,12.70
2018-08-03T23:20:28.409Z,13.10
2018-08-03T23:22:55.856Z,12.47
2018-08-03T23:25:23.258Z,12.33
2018-08-03T23:27:50.662Z,11.17
2018-08-03T23:30:18.153Z,11.70
2018-08-03T23:32:45.573Z,11.50
2018-08-03T23:35:12.979Z,12.07
2018-08-03T23:37:40.457Z,12.80
2018-08-03T23:40:07.924Z,11.70
2018-08-03T23:42:35.903Z,12.03
2018-08-03T23:45:03.350Z,12.43
2018-08-03T23:47:30.828Z,12.40
2018-08-03T23:49:58.141Z,11.37
2018-08-03T23:52:25.512Z,11.70
2018-08-03T23:54:52.933Z,11.60
2018-08-03T23:57:20.433Z,12.37
2018-08-03T23:59:48.130Z,11.37
